createdAt,value
2022-12-16T00:01:58.664Z,74.80
2022-12-16T00:07:00.387Z,70.67
2022-12-16T00:12:02.190Z,68.37
2022-12-16T00:17:03.826Z,70.15
2022-12-16T00:22:06.629Z,73.77
2022-12-16T00:27:08.360Z,70.73
2022-12-16T00:32:10.659Z,68.60
2022-12-16T00:37:13.445Z,63.27
2022-12-16T00:42:15.119Z,63.23
2022-12-16T00:47:16.762Z,60.47
2022-12-16T00:52:18.410Z,57.90
2022-12-16T00:57:20.060Z,63.03
2022-12-16T01:02:21.863Z,59.10
2022-12-16T01:07:23.624Z,70.87
2022-12-16T01:12:25.310Z,66.63
2022-12-16T01:17:27.177Z,68.03
2022-12-16T01:22:31.401Z,68.57
2022-12-16T01:27:33.080Z,67.90
2022-12-16T01:32:34.760Z,72.70
2022-12-16T01:37:36.416Z,65.53
2022-12-16T01:42:38.072Z,69.00
2022-12-16T01:47:39.745Z,69.43
2022-12-16T01:52:46.568Z,69.90
2022-12-16T01:58:02.494Z,67.67
2022-12-16T02:03:05.236Z,68.97
2022-12-16T02:08:09.851Z,63.83
2022-12-16T02:13:17.224Z,61.07
2022-12-16T02:18:40.668Z,64.90
2022-12-16T02:24:06.168Z,63.30
2022-12-16T02:29:32.430Z,68.23
2022-12-16T02:34:46.168Z,62.60
2022-12-16T02:39:56.931Z,64.47
2022-12-16T02:45:07.396Z,66.63
2022-12-16T02:50:33.472Z,71.23
2022-12-16T02:55:52.980Z,64.47
2022-12-16T03:01:13.229Z,67.00
2022-12-16T03:06:19.499Z,64.20
2022-12-16T03:11:21.349Z,74.88
2022-12-16T03:16:28.961Z,69.53
2022-12-16T03:21:38.318Z,66.70
2022-12-16T03:27:02.453Z,78.33
2022-12-16T03:32:12.684Z,74.00
2022-12-16T03:37:14.761Z,70.60
2022-12-16T03:42:17.261Z,71.67
2022-12-16T03:47:23.597Z,78.23
2022-12-16T03:52:25.795Z,84.40
2022-12-16T03:57:27.424Z,88.50
2022-12-16T04:02:29.263Z,84.87
2022-12-16T04:07:31.214Z,78.70
2022-12-16T04:12:51.457Z,93.80
2022-12-16T04:18:11.860Z,78.53
2022-12-16T04:23:32.901Z,82.43
2022-12-16T04:28:34.870Z,77.47
2022-12-16T04:33:55.576Z,83.05
2022-12-16T04:39:17.471Z,77.57
2022-12-16T04:44:37.358Z,73.30
2022-12-16T04:49:57.973Z,81.15
2022-12-16T04:55:18.124Z,78.10
2022-12-16T05:00:38.348Z,70.78
2022-12-16T05:05:58.588Z,75.37
2022-12-16T05:11:18.852Z,80.80
2022-12-16T05:16:39.110Z,80.23
2022-12-16T05:21:59.342Z,66.63
2022-12-16T05:27:19.502Z,68.40
2022-12-16T05:32:39.910Z,76.60
2022-12-16T05:38:00.084Z,68.53
2022-12-16T05:43:20.342Z,61.87
2022-12-16T05:48:46.032Z,60.08
2022-12-16T05:54:07.634Z,74.17
2022-12-16T05:59:27.713Z,47.83
2022-12-16T06:04:47.990Z,46.23
2022-12-16T06:10:08.325Z,56.13
2022-12-16T06:15:29.637Z,55.63
2022-12-16T06:20:49.902Z,59.83
2022-12-16T06:26:10.118Z,53.57
2022-12-16T06:31:30.498Z,51.53
2022-12-16T06:36:50.708Z,52.53
2022-12-16T06:42:10.864Z,55.07
2022-12-16T06:47:30.813Z,51.03
2022-12-16T06:52:51.128Z,53.43
2022-12-16T06:58:18.046Z,51.83
2022-12-16T07:03:38.513Z,45.67
2022-12-16T07:08:58.984Z,47.23
2022-12-16T07:14:19.082Z,56.77
2022-12-16T07:19:39.241Z,58.73
2022-12-16T07:24:59.467Z,51.63
2022-12-16T07:30:19.840Z,52.35
2022-12-16T07:35:40.043Z,53.83
2022-12-16T07:41:00.431Z,51.55
2022-12-16T07:46:20.674Z,53.45
2022-12-16T07:51:41.054Z,57.40
2022-12-16T07:57:01.393Z,50.05
2022-12-16T08:02:21.577Z,55.63
2022-12-16T08:07:41.535Z,56.15
2022-12-16T08:13:01.685Z,60.43
2022-12-16T08:18:21.858Z,61.83
2022-12-16T08:23:42.181Z,63.08
2022-12-16T08:29:27.239Z,62.55
2022-12-16T08:34:42.580Z,66.68
2022-12-16T08:40:33.643Z,69.28
2022-12-16T08:45:43.294Z,64.37
2022-12-16T08:51:03.712Z,67.93
2022-12-16T08:56:23.857Z,70.83
2022-12-16T09:01:44.190Z,66.20
2022-12-16T09:07:04.700Z,83.30
2022-12-16T09:12:25.039Z,77.47
2022-12-16T09:17:45.201Z,71.93
2022-12-16T09:23:05.461Z,61.60
2022-12-16T09:28:25.434Z,70.22
2022-12-16T09:33:45.818Z,70.95
2022-12-16T09:39:05.575Z,71.80
2022-12-16T09:44:50.072Z,69.90
2022-12-16T09:50:12.412Z,68.22
2022-12-16T09:55:59.905Z,63.55
2022-12-16T10:01:20.742Z,66.32
2022-12-16T10:06:59.335Z,61.87
2022-12-16T10:12:42.724Z,68.22
2022-12-16T10:18:04.711Z,62.75
2022-12-16T10:23:56.681Z,62.05
2022-12-16T10:29:31.139Z,59.92
2022-12-16T10:34:54.992Z,63.33
2022-12-16T10:40:18.270Z,60.20
2022-12-16T10:45:44.103Z,70.07
2022-12-16T10:51:04.467Z,75.83
2022-12-16T10:56:44.942Z,71.63
2022-12-16T11:02:21.700Z,74.35
2022-12-16T11:07:46.820Z,75.28
2022-12-16T11:13:07.098Z,73.78
2022-12-16T11:18:35.908Z,72.93
2022-12-16T11:23:55.913Z,72.20
2022-12-16T11:29:28.092Z,70.30
2022-12-16T11:34:48.410Z,69.93
2022-12-16T11:40:08.530Z,70.87
2022-12-16T11:45:35.653Z,76.13
2022-12-16T11:51:01.731Z,64.67
2022-12-16T11:56:23.637Z,74.17
2022-12-16T12:01:51.538Z,68.57
2022-12-16T12:07:45.335Z,69.87
2022-12-16T12:13:46.771Z,76.87
2022-12-16T12:19:27.373Z,75.00
2022-12-16T12:25:09.285Z,67.40
2022-12-16T12:30:33.696Z,72.85
2022-12-16T12:36:09.228Z,70.03
2022-12-16T12:42:05.525Z,72.30
2022-12-16T12:47:29.361Z,74.13
2022-12-16T12:53:28.146Z,64.50
2022-12-16T12:58:53.172Z,70.95
2022-12-16T13:04:23.500Z,69.67
2022-12-16T13:09:53.859Z,71.43
2022-12-16T13:15:51.199Z,68.13
2022-12-16T13:21:15.453Z,75.20
2022-12-16T13:26:38.272Z,85.18
2022-12-16T13:32:20.218Z,67.00
2022-12-16T13:37:44.392Z,74.90
2022-12-16T13:43:04.422Z,72.43
2022-12-16T13:48:46.379Z,74.63
2022-12-16T13:54:10.553Z,76.93
2022-12-16T13:59:39.057Z,69.30
2022-12-16T14:05:03.905Z,75.80
2022-12-16T14:10:24.663Z,78.77
2022-12-16T14:15:52.513Z,75.80
2022-12-16T14:21:21.154Z,76.27
2022-12-16T14:26:42.415Z,75.00
2022-12-16T14:32:03.223Z,78.27
2022-12-16T14:37:38.295Z,85.47
2022-12-16T14:43:00.004Z,73.57
2022-12-16T14:48:20.338Z,78.37
2022-12-16T14:53:42.990Z,76.57
2022-12-16T14:59:19.972Z,83.13
2022-12-16T15:04:40.689Z,78.43
2022-12-16T15:10:08.861Z,77.37
2022-12-16T15:15:36.650Z,94.10
2022-12-16T15:21:11.589Z,84.53
2022-12-16T15:26:46.088Z,75.57
2022-12-16T15:32:06.437Z,84.10
2022-12-16T15:37:41.700Z,76.17
2022-12-16T15:43:02.087Z,78.13
2022-12-16T15:48:31.913Z,81.30
2022-12-16T15:53:56.542Z,73.80
2022-12-16T15:59:32.869Z,87.10
2022-12-16T16:04:53.407Z,79.05
2022-12-16T16:10:26.987Z,75.83
2022-12-16T16:15:47.382Z,77.07
2022-12-16T16:21:08.665Z,76.77
2022-12-16T16:26:34.573Z,89.15
2022-12-16T16:31:59.411Z,73.70
2022-12-16T16:37:32.596Z,69.83
2022-12-16T16:42:54.012Z,72.70
2022-12-16T16:48:31.241Z,81.13
2022-12-16T16:53:51.599Z,80.07
2022-12-16T16:59:11.839Z,79.18
2022-12-16T17:04:32.312Z,73.67
2022-12-16T17:09:52.384Z,68.53
2022-12-16T17:15:12.709Z,76.17
2022-12-16T17:20:34.857Z,74.50
2022-12-16T17:25:55.267Z,77.25
2022-12-16T17:31:17.196Z,89.57
2022-12-16T17:36:38.038Z,70.30
2022-12-16T17:41:58.298Z,73.07
2022-12-16T17:47:18.493Z,78.32
2022-12-16T17:52:38.908Z,79.73
2022-12-16T17:57:59.286Z,85.50
2022-12-16T18:03:19.606Z,73.60
2022-12-16T18:08:39.717Z,79.03
2022-12-16T18:14:00.556Z,82.03
2022-12-16T18:19:40.671Z,78.40
2022-12-16T18:25:01.422Z,86.73
2022-12-16T18:30:22.533Z,85.77
2022-12-16T18:35:42.807Z,78.03
2022-12-16T18:41:02.911Z,80.43
2022-12-16T18:46:23.344Z,75.60
2022-12-16T18:51:43.694Z,95.50
2022-12-16T18:57:03.955Z,71.77
2022-12-16T19:02:24.432Z,80.07
2022-12-16T19:07:44.744Z,76.63
2022-12-16T19:13:04.902Z,76.40
2022-12-16T19:18:25.155Z,72.73
2022-12-16T19:23:45.070Z,74.67
2022-12-16T19:29:05.384Z,67.80
2022-12-16T19:34:26.613Z,76.17
2022-12-16T19:39:46.848Z,73.57
2022-12-16T19:45:07.139Z,73.33
2022-12-16T19:50:28.039Z,78.33
2022-12-16T19:55:48.261Z,76.90
2022-12-16T20:01:10.225Z,69.67
2022-12-16T20:06:30.897Z,70.87
2022-12-16T20:11:51.050Z,75.37
2022-12-16T20:17:11.837Z,76.03
2022-12-16T20:22:32.058Z,72.27
2022-12-16T20:27:52.367Z,70.60
2022-12-16T20:33:13.607Z,72.63
2022-12-16T20:38:33.886Z,70.63
2022-12-16T20:43:54.155Z,74.00
2022-12-16T20:49:16.578Z,70.33
2022-12-16T20:54:36.679Z,77.83
2022-12-16T20:59:56.991Z,70.40
2022-12-16T21:05:17.270Z,79.40
2022-12-16T21:10:37.899Z,77.18
2022-12-16T21:15:58.072Z,68.55
2022-12-16T21:21:18.481Z,71.57
2022-12-16T21:26:38.786Z,77.47
2022-12-16T21:31:59.060Z,79.93
2022-12-16T21:37:19.219Z,74.85
2022-12-16T21:42:43.687Z,73.47
2022-12-16T21:48:04.415Z,80.50
2022-12-16T21:53:24.610Z,70.97
2022-12-16T21:58:44.921Z,74.22
2022-12-16T22:04:05.157Z,69.93
2022-12-16T22:09:25.345Z,69.53
2022-12-16T22:14:45.503Z,69.10
2022-12-16T22:20:05.819Z,65.13
2022-12-16T22:25:26.033Z,67.47
2022-12-16T22:30:46.549Z,69.97
2022-12-16T22:36:06.803Z,64.18
2022-12-16T22:41:27.688Z,67.73
2022-12-16T22:46:48.333Z,67.47
2022-12-16T22:52:08.630Z,72.93
2022-12-16T22:57:29.427Z,75.00
2022-12-16T23:02:49.751Z,73.60
2022-12-16T23:08:09.872Z,73.20
2022-12-16T23:13:31.203Z,66.60
2022-12-16T23:18:51.275Z,78.25
2022-12-16T23:24:12.108Z,63.53
2022-12-16T23:29:32.347Z,72.40
2022-12-16T23:34:52.739Z,64.10
2022-12-16T23:40:12.709Z,72.22
2022-12-16T23:45:32.928Z,87.10
2022-12-16T23:50:53.131Z,69.50
2022-12-16T23:56:18.832Z,64.50
